Time;durP1;ratioP1;P1;durP2;ratioP2;P2;SDS_P1;SDS_P2;PMS_P1;PMS_P2;Temp;Humidity;BMP_temperature;BMP_pressure;BME280_temperature;BME280_humidity;BME280_pressure;Samples;Min_cycle;Max_cycle;Signal;HPM_P1;HPM_P2
2021/08/14 00:00:24;;;;;;;1.07;1.07;;;18.00;99.90;;;;;;5053867;28;20543;-69
2021/08/14 00:02:50;;;;;;;0.40;0.17;;;17.90;99.90;;;;;;5054961;28;20431;-70
2021/08/14 00:05:15;;;;;;;0.40;0.20;;;17.80;99.90;;;;;;5036499;28;20194;-69
2021/08/14 00:07:41;;;;;;;0.40;0.20;;;17.90;99.90;;;;;;5034081;28;20205;-69
2021/08/14 00:10:07;;;;;;;0.40;0.10;;;17.90;99.90;;;;;;5035311;28;20201;-69
2021/08/14 00:12:33;;;;;;;0.40;0.20;;;17.80;99.90;;;;;;5034481;28;20431;-69
2021/08/14 00:14:59;;;;;;;0.40;0.20;;;17.80;99.90;;;;;;5036506;28;20423;-69
2021/08/14 00:17:24;;;;;;;0.40;0.20;;;17.90;99.90;;;;;;5036771;28;20208;-68
2021/08/14 00:19:50;;;;;;;0.40;0.20;;;17.70;99.90;;;;;;5036085;28;20649;-68
2021/08/14 00:22:15;;;;;;;0.40;0.20;;;17.60;99.90;;;;;;5037817;28;20178;-68
2021/08/14 00:24:41;;;;;;;0.40;0.20;;;17.70;99.90;;;;;;5037835;28;20574;-68
2021/08/14 00:27:06;;;;;;;0.40;0.20;;;17.70;99.90;;;;;;5038721;28;20197;-69
2021/08/14 00:29:32;;;;;;;0.40;0.20;;;17.80;99.90;;;;;;5037189;28;20204;-68
2021/08/14 00:31:57;;;;;;;0.40;0.20;;;17.80;99.90;;;;;;5037286;28;20216;-69
2021/08/14 00:34:23;;;;;;;0.40;0.20;;;17.60;99.90;;;;;;5039249;28;20215;-69
2021/08/14 00:36:48;;;;;;;0.40;0.20;;;17.50;99.90;;;;;;5040190;28;20189;-69
2021/08/14 00:39:14;;;;;;;0.40;0.20;;;17.40;99.90;;;;;;5038876;28;20228;-69
2021/08/14 00:41:39;;;;;;;0.50;0.40;;;17.20;99.90;;;;;;5039521;28;20628;-69
2021/08/14 00:44:05;;;;;;;0.50;0.40;;;17.10;99.90;;;;;;5037397;28;20232;-69
2021/08/14 00:46:32;;;;;;;0.40;0.20;;;17.10;99.90;;;;;;5037564;28;20174;-69
2021/08/14 00:49:00;;;;;;;0.40;0.20;;;17.00;99.90;;;;;;5036956;28;20428;-68
2021/08/14 00:51:26;;;;;;;0.40;0.20;;;17.10;99.90;;;;;;5033538;28;20443;-69
2021/08/14 00:53:52;;;;;;;0.40;0.20;;;17.10;99.90;;;;;;5033276;28;20440;-66
2021/08/14 00:56:26;;;;;;;0.40;0.20;;;17.00;99.90;;;;;;5033458;28;20970;-68
2021/08/14 00:58:53;;;;;;;0.40;0.20;;;17.00;99.90;;;;;;5033773;28;20979;-68
2021/08/14 01:01:22;;;;;;;0.40;0.20;;;16.90;99.90;;;;;;5034096;28;20480;-66
2021/08/14 01:03:48;;;;;;;0.40;0.20;;;16.80;99.90;;;;;;5033265;28;20439;-67
2021/08/14 01:06:17;;;;;;;0.40;0.20;;;16.70;99.90;;;;;;5034024;28;20771;-68
2021/08/14 01:08:43;;;;;;;0.40;0.10;;;16.80;99.90;;;;;;5033768;28;20424;-68
2021/08/14 01:11:12;;;;;;;0.40;0.20;;;16.80;99.90;;;;;;5034197;28;20761;-69
2021/08/14 01:13:38;;;;;;;0.40;0.20;;;16.90;99.90;;;;;;5033796;28;20582;-67
2021/08/14 01:16:05;;;;;;;0.40;0.20;;;16.90;99.90;;;;;;5033942;28;20956;-67
2021/08/14 01:18:31;;;;;;;0.40;0.20;;;17.10;99.90;;;;;;5033589;28;20782;-66
2021/08/14 01:20:57;;;;;;;0.40;0.20;;;17.20;99.90;;;;;;5033658;28;20455;-67
2021/08/14 01:23:22;;;;;;;0.40;0.20;;;17.20;99.90;;;;;;5033873;28;20575;-66
2021/08/14 01:26:08;;;;;;;0.40;0.20;;;17.40;99.90;;;;;;5033682;28;20173;-66
2021/08/14 01:28:35;;;;;;;0.40;0.17;;;17.40;99.90;;;;;;5032392;28;20223;-66
2021/08/14 01:31:02;;;;;;;0.40;0.20;;;17.50;99.90;;;;;;5033548;28;20432;-68
2021/08/14 01:33:31;;;;;;;0.40;0.20;;;17.50;99.90;;;;;;5032494;28;20843;-69
2021/08/14 01:35:57;;;;;;;0.40;0.20;;;17.50;99.90;;;;;;5033582;28;20482;-67
2021/08/14 01:38:22;;;;;;;0.40;0.10;;;17.40;99.90;;;;;;5033253;28;20436;-67
2021/08/14 01:40:48;;;;;;;0.40;0.20;;;17.40;99.90;;;;;;5033734;28;20215;-66
2021/08/14 01:43:13;;;;;;;0.40;0.20;;;17.40;99.90;;;;;;5032915;28;20521;-66
2021/08/14 01:45:40;;;;;;;0.40;0.20;;;17.40;99.90;;;;;;5033569;28;20170;-66
2021/08/14 01:48:06;;;;;;;3.30;2.37;;;17.50;99.90;;;;;;5033335;28;20185;-66
2021/08/14 01:50:31;;;;;;;0.40;0.20;;;17.60;99.90;;;;;;5032487;28;20446;-66
2021/08/14 01:52:57;;;;;;;0.40;0.20;;;17.60;99.90;;;;;;5033543;28;20185;-66
2021/08/14 01:55:23;;;;;;;0.40;0.10;;;17.60;99.90;;;;;;5033389;28;20185;-66
2021/08/14 01:57:49;;;;;;;0.40;0.20;;;17.60;99.90;;;;;;5033222;28;20201;-66
2021/08/14 02:00:15;;;;;;;0.40;0.20;;;17.70;99.90;;;;;;5033225;28;20551;-66
2021/08/14 02:02:40;;;;;;;0.40;0.10;;;17.70;99.90;;;;;;5033454;28;20184;-67
2021/08/14 02:05:06;;;;;;;0.40;0.20;;;17.70;99.90;;;;;;5033328;28;20431;-67
2021/08/14 02:07:32;;;;;;;0.40;0.20;;;17.60;99.90;;;;;;5033280;28;20197;-67
2021/08/14 02:09:57;;;;;;;0.40;0.30;;;17.70;99.90;;;;;;5033092;28;20186;-67
2021/08/14 02:12:23;;;;;;;0.40;0.20;;;17.70;99.90;;;;;;5033444;28;20185;-66
2021/08/14 02:14:48;;;;;;;0.40;0.20;;;17.60;99.90;;;;;;5033237;28;20209;-67
2021/08/14 02:17:14;;;;;;;0.40;0.20;;;17.60;99.90;;;;;;5033138;28;20668;-67
2021/08/14 02:19:39;;;;;;;0.40;0.20;;;17.60;99.90;;;;;;5032978;28;20597;-67
2021/08/14 02:22:05;;;;;;;0.40;0.17;;;17.60;99.90;;;;;;5033140;28;20200;-67
2021/08/14 02:24:31;;;;;;;0.40;0.20;;;17.60;99.90;;;;;;5033136;28;20177;-67
2021/08/14 02:26:56;;;;;;;0.40;0.20;;;17.60;99.90;;;;;;5033198;28;20186;-66
2021/08/14 02:29:22;;;;;;;0.40;0.20;;;17.60;99.90;;;;;;5031978;28;20196;-66
2021/08/14 02:31:47;;;;;;;0.40;0.20;;;17.60;99.90;;;;;;5033227;28;20273;-67
2021/08/14 02:34:13;;;;;;;0.80;0.77;;;17.70;99.90;;;;;;5033409;28;20182;-69
2021/08/14 02:36:38;;;;;;;0.40;0.20;;;17.50;99.90;;;;;;5033070;28;20178;-68
2021/08/14 02:39:04;;;;;;;0.40;0.20;;;17.40;99.90;;;;;;5032933;28;20186;-69
2021/08/14 02:41:30;;;;;;;0.40;0.20;;;17.30;99.90;;;;;;5033060;28;20177;-69
2021/08/14 02:43:56;;;;;;;0.40;0.20;;;17.20;99.90;;;;;;5034202;28;20868;-69
2021/08/14 02:46:22;;;;;;;0.40;0.20;;;17.20;99.90;;;;;;5036530;28;20181;-69
2021/08/14 02:48:47;;;;;;;0.40;0.20;;;17.30;99.90;;;;;;5036501;28;20264;-70
2021/08/14 02:51:14;;;;;;;0.40;0.20;;;17.30;99.90;;;;;;5036586;28;20953;-67
2021/08/14 02:53:40;;;;;;;0.40;0.20;;;17.30;99.90;;;;;;5036895;28;20480;-68
2021/08/14 02:56:05;;;;;;;0.40;0.20;;;17.30;99.90;;;;;;5035450;28;20502;-69
2021/08/14 02:58:31;;;;;;;0.83;0.83;;;17.30;99.90;;;;;;5036321;28;20540;-70
2021/08/14 03:00:57;;;;;;;0.40;0.10;;;17.00;99.90;;;;;;5035425;28;20213;-68
2021/08/14 03:03:25;;;;;;;0.40;0.20;;;17.00;99.90;;;;;;5035642;28;20440;-69
2021/08/14 03:05:51;;;;;;;0.40;0.20;;;17.10;99.90;;;;;;5036412;28;20416;-69
2021/08/14 03:08:16;;;;;;;0.40;0.20;;;17.10;99.90;;;;;;5035103;28;20436;-69
2021/08/14 03:10:42;;;;;;;0.40;0.20;;;17.10;99.90;;;;;;5035079;28;20444;-69
2021/08/14 03:13:10;;;;;;;0.40;0.20;;;17.10;99.90;;;;;;5036139;28;20193;-67
2021/08/14 03:15:36;;;;;;;0.40;0.20;;;17.10;99.90;;;;;;5036105;28;20304;-67
2021/08/14 03:18:02;;;;;;;0.40;0.10;;;17.00;99.90;;;;;;5036061;28;20904;-68
2021/08/14 03:20:28;;;;;;;0.40;0.20;;;17.00;99.90;;;;;;5035949;28;20209;-67
2021/08/14 03:22:53;;;;;;;0.40;0.20;;;16.90;99.90;;;;;;5035901;28;20898;-67
2021/08/14 03:25:19;;;;;;;0.40;0.20;;;17.00;99.90;;;;;;5035919;28;20201;-67
2021/08/14 03:27:45;;;;;;;0.40;0.20;;;17.10;99.90;;;;;;5035950;28;20173;-66
2021/08/14 03:30:14;;;;;;;0.40;0.20;;;17.20;99.90;;;;;;5035810;28;20182;-66
2021/08/14 03:32:39;;;;;;;0.40;0.20;;;17.30;99.90;;;;;;5035745;28;20177;-66
2021/08/14 03:35:05;;;;;;;0.40;0.20;;;17.30;99.90;;;;;;5035736;28;20432;-66
2021/08/14 03:37:31;;;;;;;0.40;0.20;;;17.30;99.90;;;;;;5035521;28;20186;-66
2021/08/14 03:39:57;;;;;;;0.50;0.40;;;17.20;99.90;;;;;;5035366;28;20778;-66
2021/08/14 03:42:22;;;;;;;0.43;0.23;;;17.40;99.90;;;;;;5035629;28;20460;-66
2021/08/14 03:44:48;;;;;;;0.40;0.20;;;17.50;99.90;;;;;;5035427;28;20220;-66
2021/08/14 03:47:13;;;;;;;0.40;0.20;;;17.40;99.90;;;;;;5035423;28;20201;-66
2021/08/14 03:49:39;;;;;;;0.40;0.20;;;17.40;99.90;;;;;;5034301;28;20259;-66
2021/08/14 03:52:05;;;;;;;0.40;0.20;;;17.40;99.90;;;;;;5035264;28;20804;-66
2021/08/14 03:54:30;;;;;;;0.50;0.40;;;17.50;99.90;;;;;;5035044;28;20178;-66
2021/08/14 03:56:56;;;;;;;0.40;0.20;;;17.40;99.90;;;;;;5034488;28;20923;-66
2021/08/14 03:59:22;;;;;;;0.40;0.20;;;17.50;99.90;;;;;;5035094;28;20205;-66
2021/08/14 04:01:47;;;;;;;0.40;0.20;;;17.50;99.90;;;;;;5034097;28;20197;-66
2021/08/14 04:04:13;;;;;;;0.40;0.13;;;17.50;99.90;;;;;;5035153;28;20420;-66
2021/08/14 04:06:38;;;;;;;0.40;0.20;;;17.50;99.90;;;;;;5034858;28;20178;-66
2021/08/14 04:09:04;;;;;;;0.40;0.20;;;17.30;99.90;;;;;;5035088;28;20205;-66
2021/08/14 04:11:29;;;;;;;0.40;0.20;;;17.30;99.90;;;;;;5034921;28;20256;-66
2021/08/14 04:13:55;;;;;;;0.40;0.10;;;17.30;99.90;;;;;;5034034;28;20271;-66
2021/08/14 04:16:20;;;;;;;0.40;0.20;;;17.20;99.90;;;;;;5035013;28;20216;-66
2021/08/14 04:18:46;;;;;;;0.40;0.20;;;17.30;99.90;;;;;;5034776;28;20173;-68
2021/08/14 04:21:11;;;;;;;0.40;0.20;;;17.40;99.90;;;;;;5034802;28;20645;-68
2021/08/14 04:23:37;;;;;;;0.40;0.10;;;17.50;99.90;;;;;;5034774;28;20173;-67
2021/08/14 04:26:03;;;;;;;0.40;0.20;;;17.70;99.90;;;;;;5034942;28;20256;-67
2021/08/14 04:28:28;;;;;;;0.40;0.20;;;17.60;99.90;;;;;;5034571;28;20177;-67
2021/08/14 04:30:54;;;;;;;0.40;0.20;;;17.60;99.90;;;;;;5034770;28;20610;-67
2021/08/14 04:33:19;;;;;;;0.40;0.20;;;17.60;99.90;;;;;;5034697;28;20181;-68
2021/08/14 04:35:45;;;;;;;0.40;0.20;;;17.60;99.90;;;;;;5034463;28;20182;-68
2021/08/14 04:38:11;;;;;;;0.40;0.20;;;17.60;99.90;;;;;;5034198;28;20178;-68
2021/08/14 04:40:36;;;;;;;0.50;0.40;;;17.50;99.90;;;;;;5034417;28;20205;-68
2021/08/14 04:43:02;;;;;;;1.17;1.07;;;17.50;99.90;;;;;;5033491;28;20185;-68
2021/08/14 04:45:27;;;;;;;0.40;0.20;;;17.60;99.90;;;;;;5034358;28;20283;-68
2021/08/14 04:47:53;;;;;;;0.80;0.80;;;17.60;99.90;;;;;;5033292;28;20182;-68
2021/08/14 04:50:19;;;;;;;0.40;0.20;;;17.60;99.90;;;;;;5034140;28;20177;-68
2021/08/14 04:52:44;;;;;;;0.40;0.20;;;17.80;99.90;;;;;;5034209;28;20535;-68
2021/08/14 04:55:10;;;;;;;0.40;0.20;;;17.80;99.90;;;;;;5034257;28;20522;-68
2021/08/14 04:57:36;;;;;;;0.40;0.17;;;18.00;99.90;;;;;;5033901;28;20207;-68
2021/08/14 05:00:04;;;;;;;0.63;0.63;;;17.90;99.90;;;;;;5032874;28;20891;-68
2021/08/14 05:02:30;;;;;;;0.40;0.20;;;17.90;99.90;;;;;;5033398;28;20550;-68
2021/08/14 05:04:56;;;;;;;0.40;0.20;;;17.80;99.90;;;;;;5033967;28;20424;-68
2021/08/14 05:07:22;;;;;;;0.50;0.30;;;17.80;99.90;;;;;;5033670;28;20425;-67
2021/08/14 05:09:47;;;;;;;0.40;0.20;;;18.00;99.90;;;;;;5033100;28;20177;-67
2021/08/14 05:12:13;;;;;;;0.40;0.20;;;17.90;99.90;;;;;;5034020;28;20185;-67
2021/08/14 05:14:38;;;;;;;0.40;0.20;;;17.90;99.90;;;;;;5033862;28;20174;-68
2021/08/14 05:17:04;;;;;;;0.40;0.20;;;18.00;98.20;;;;;;5033747;28;20188;-68
2021/08/14 05:19:30;;;;;;;0.40;0.20;;;18.00;78.30;;;;;;5032578;28;20214;-68
2021/08/14 05:21:55;;;;;;;0.40;0.20;;;17.90;99.90;;;;;;5033708;28;20261;-68
2021/08/14 05:24:21;;;;;;;0.40;0.20;;;17.90;99.90;;;;;;5033935;28;20197;-68
2021/08/14 05:26:46;;;;;;;0.40;0.20;;;17.90;99.90;;;;;;5033729;28;20520;-68
2021/08/14 05:29:12;;;;;;;0.50;0.20;;;18.10;99.90;;;;;;5032540;28;20173;-68
2021/08/14 05:31:38;;;;;;;1.13;0.60;;;18.30;80.10;;;;;;5032665;28;20580;-68
2021/08/14 05:34:05;;;;;;;0.90;0.47;;;18.40;14.20;;;;;;5033651;28;20267;-68
2021/08/14 05:36:32;;;;;;;0.40;0.20;;;18.50;1.00;;;;;;5033444;28;20169;-68
2021/08/14 05:38:57;;;;;;;0.40;0.20;;;18.60;1.00;;;;;;5032282;28;20435;-68
2021/08/14 05:41:23;;;;;;;0.40;0.20;;;18.70;1.00;;;;;;5032625;28;20433;-67
2021/08/14 05:43:49;;;;;;;0.40;0.20;;;18.70;1.00;;;;;;5033542;28;20244;-67
2021/08/14 05:46:15;;;;;;;0.50;0.30;;;18.90;1.00;;;;;;5033587;28;20243;-67
2021/08/14 05:48:40;;;;;;;0.60;0.53;;;19.00;1.00;;;;;;5033272;28;20236;-67
2021/08/14 05:51:06;;;;;;;0.40;0.20;;;19.00;1.00;;;;;;5033518;28;20185;-67
2021/08/14 05:53:31;;;;;;;0.40;0.20;;;19.30;1.00;;;;;;5033438;28;20495;-68
2021/08/14 05:55:58;;;;;;;0.50;0.20;;;19.40;1.00;;;;;;5033379;28;20529;-66
2021/08/14 05:58:24;;;;;;;0.50;0.40;;;19.40;1.00;;;;;;5033108;28;20212;-66
2021/08/14 06:00:49;;;;;;;0.40;0.20;;;19.30;1.00;;;;;;5032900;28;20468;-66
2021/08/14 06:03:15;;;;;;;0.70;0.40;;;19.50;1.00;;;;;;5033334;28;20280;-66
2021/08/14 06:05:45;;;;;;;0.40;0.20;;;19.70;1.00;;;;;;5033419;28;20248;-66
2021/08/14 06:08:10;;;;;;;0.50;0.47;;;19.80;1.00;;;;;;5033115;28;20208;-66
2021/08/14 06:10:36;;;;;;;0.50;0.40;;;20.00;99.90;;;;;;5033285;28;20482;-68
2021/08/14 06:13:01;;;;;;;0.50;0.20;;;19.70;99.90;;;;;;5033126;28;20185;-67
2021/08/14 06:15:27;;;;;;;0.50;0.30;;;19.90;99.90;;;;;;5032282;28;20627;-67
2021/08/14 06:17:53;;;;;;;0.40;0.20;;;19.90;99.90;;;;;;5033201;28;20589;-66
2021/08/14 06:20:19;;;;;;;0.40;0.20;;;19.80;99.90;;;;;;5035597;28;20208;-66
2021/08/14 06:22:44;;;;;;;0.40;0.20;;;19.60;99.90;;;;;;5037014;28;20737;-67
2021/08/14 06:25:11;;;;;;;0.43;0.20;;;20.00;99.90;;;;;;5037209;28;20205;-67
2021/08/14 06:27:37;;;;;;;0.40;0.10;;;20.30;43.50;;;;;;5036975;28;20683;-67
2021/08/14 06:30:05;;;;;;;0.60;0.50;;;20.80;1.00;;;;;;5036906;28;20455;-66
2021/08/14 06:32:31;;;;;;;0.40;0.17;;;21.10;1.00;;;;;;5035939;28;20192;-66
2021/08/14 06:34:57;;;;;;;0.43;0.20;;;21.40;99.90;;;;;;5036568;28;20438;-66
2021/08/14 06:37:22;;;;;;;0.40;0.17;;;22.10;99.90;;;;;;5036330;28;20515;-66
2021/08/14 06:39:48;;;;;;;4.53;1.83;;;22.40;99.90;;;;;;5035434;28;20201;-66
2021/08/14 06:42:13;;;;;;;0.40;0.20;;;21.90;1.00;;;;;;5035573;28;20618;-67
2021/08/14 06:44:39;;;;;;;0.40;0.20;;;22.10;99.90;;;;;;5036746;28;20654;-67
2021/08/14 06:47:05;;;;;;;2.20;0.87;;;22.60;99.90;;;;;;5035809;28;20627;-66
2021/08/14 06:49:30;;;;;;;0.50;0.33;;;23.10;99.90;;;;;;5036963;28;20424;-66
2021/08/14 06:51:56;;;;;;;0.40;0.20;;;23.80;64.00;;;;;;5037064;28;20186;-66
2021/08/14 06:54:22;;;;;;;0.40;0.23;;;24.10;1.00;;;;;;5037161;28;20174;-66
2021/08/14 06:56:48;;;;;;;0.40;0.20;;;24.60;99.90;;;;;;5037263;28;20274;-68
2021/08/14 06:59:14;;;;;;;0.40;0.20;;;25.00;99.90;;;;;;5035470;28;20967;-68
2021/08/14 07:01:39;;;;;;;0.50;0.30;;;25.40;99.90;;;;;;5026907;28;20186;-68
2021/08/14 07:04:05;;;;;;;0.80;0.40;;;25.60;95.00;;;;;;5017066;28;20181;-69
2021/08/14 07:06:30;;;;;;;0.50;0.20;;;24.80;99.90;;;;;;5024621;28;20263;-69
2021/08/14 07:08:56;;;;;;;1.53;0.80;;;24.40;99.90;;;;;;5021971;28;20241;-69
2021/08/14 07:11:22;;;;;;;0.50;0.20;;;24.20;99.90;;;;;;5016317;28;20206;-69
2021/08/14 07:13:49;;;;;;;0.60;0.40;;;24.10;99.90;;;;;;5016461;28;20196;-67
2021/08/14 07:16:15;;;;;;;0.40;0.20;;;23.90;1.00;;;;;;5016408;28;20520;-66
2021/08/14 07:18:42;;;;;;;1.07;0.73;;;23.90;99.90;;;;;;5016925;28;20805;-66
2021/08/14 07:21:07;;;;;;;0.50;0.20;;;24.00;99.90;;;;;;5016817;28;20245;-66
2021/08/14 07:23:33;;;;;;;0.73;0.73;;;24.00;99.90;;;;;;5016960;28;20453;-68
2021/08/14 07:25:59;;;;;;;0.50;0.40;;;23.80;99.90;;;;;;5015415;28;20202;-67
2021/08/14 07:28:25;;;;;;;1.43;0.73;;;23.40;1.00;;;;;;5016353;28;20183;-67
2021/08/14 07:30:51;;;;;;;0.53;0.27;;;23.40;1.00;;;;;;5016477;28;20886;-66
2021/08/14 07:33:17;;;;;;;0.40;0.20;;;23.00;1.00;;;;;;5016534;28;20955;-67
2021/08/14 07:35:44;;;;;;;0.50;0.30;;;22.80;1.00;;;;;;5016134;28;20429;-67
2021/08/14 07:38:10;;;;;;;0.50;0.40;;;23.00;1.00;;;;;;5015837;28;20797;-67
2021/08/14 07:40:36;;;;;;;0.50;0.20;;;22.50;1.00;;;;;;5014676;28;20564;-67
2021/08/14 07:43:02;;;;;;;3.40;0.83;;;22.30;99.90;;;;;;5015868;28;20508;-67
2021/08/14 07:45:28;;;;;;;0.50;0.20;;;22.40;57.80;;;;;;5014540;28;20627;-67
2021/08/14 07:47:54;;;;;;;0.60;0.40;;;21.70;1.00;;;;;;5015446;28;20515;-67
2021/08/14 07:50:22;;;;;;;0.50;0.20;;;21.40;99.90;;;;;;5016470;28;20476;-67
2021/08/14 07:52:49;;;;;;;0.63;0.30;;;21.70;99.90;;;;;;5032366;28;20939;-67
2021/08/14 07:55:16;;;;;;;0.80;0.70;;;21.80;99.90;;;;;;5035300;28;20740;-67
2021/08/14 07:57:42;;;;;;;4.70;0.80;;;21.80;1.00;;;;;;5035291;28;20459;-66
2021/08/14 08:00:11;;;;;;;0.97;0.53;;;21.70;42.30;;;;;;5034954;28;20542;-66
2021/08/14 08:02:37;;;;;;;0.60;0.20;;;21.40;99.90;;;;;;5034287;28;20428;-68
2021/08/14 08:05:04;;;;;;;0.40;0.20;;;21.10;68.10;;;;;;5035195;28;20467;-67
2021/08/14 08:07:30;;;;;;;0.40;0.20;;;21.20;99.90;;;;;;5034730;28;20420;-67
2021/08/14 08:09:56;;;;;;;1.80;0.40;;;21.50;1.00;;;;;;5035008;28;20439;-67
2021/08/14 08:12:21;;;;;;;1.47;1.37;;;21.70;1.00;;;;;;5034978;28;20785;-67
2021/08/14 08:14:47;;;;;;;5.33;1.60;;;21.70;1.00;;;;;;5034666;28;20506;-67
2021/08/14 08:17:12;;;;;;;0.90;0.20;;;21.40;99.90;;;;;;5036231;28;20194;-67
2021/08/14 08:19:38;;;;;;;0.50;0.20;;;21.60;59.20;;;;;;5035779;28;20736;-67
2021/08/14 08:22:04;;;;;;;0.50;0.20;;;21.80;99.90;;;;;;5034835;28;20698;-67
2021/08/14 08:24:30;;;;;;;0.40;0.20;;;22.00;1.00;;;;;;5033927;28;20640;-67
2021/08/14 08:26:56;;;;;;;3.27;3.00;;;22.20;1.00;;;;;;5033719;28;20424;-67
2021/08/14 08:29:21;;;;;;;0.80;0.63;;;22.30;1.00;;;;;;5036233;28;20450;-67
2021/08/14 08:31:47;;;;;;;0.47;0.20;;;22.40;99.90;;;;;;5034676;28;20212;-67
2021/08/14 08:34:13;;;;;;;0.80;0.60;;;22.50;1.00;;;;;;5034699;28;20250;-68
2021/08/14 08:36:39;;;;;;;0.60;0.30;;;22.70;99.90;;;;;;5033958;28;20757;-68
2021/08/14 08:39:04;;;;;;;1.00;0.30;;;23.00;99.90;;;;;;5038152;28;20185;-69
2021/08/14 08:41:34;;;;;;;0.50;0.20;;;23.20;1.00;;;;;;5033207;28;20192;-69
2021/08/14 08:44:00;;;;;;;0.83;0.83;;;23.20;1.00;;;;;;5033479;28;20178;-67
2021/08/14 08:46:31;;;;;;;2.67;0.97;;;23.30;1.00;;;;;;5034450;28;20813;-67
2021/08/14 08:48:59;;;;;;;8.23;1.90;;;23.50;1.00;;;;;;5034233;28;20169;-67
2021/08/14 08:51:28;;;;;;;0.57;0.30;;;22.90;1.00;;;;;;5034431;28;20436;-67
2021/08/14 08:53:54;;;;;;;0.50;0.27;;;22.70;99.90;;;;;;5034192;28;20936;-67
2021/08/14 08:56:20;;;;;;;0.47;0.27;;;22.70;99.90;;;;;;5034210;28;20474;-67
2021/08/14 08:58:46;;;;;;;1.73;0.50;;;22.80;99.90;;;;;;5033934;28;20451;-67
2021/08/14 09:01:12;;;;;;;0.70;0.67;;;23.40;6.20;;;;;;5033482;28;20205;-67
2021/08/14 09:03:37;;;;;;;0.93;0.60;;;23.20;1.00;;;;;;5034416;28;20197;-67
2021/08/14 09:06:03;;;;;;;0.67;0.57;;;23.10;1.00;;;;;;5034102;28;20603;-67
2021/08/14 09:08:28;;;;;;;0.73;0.40;;;23.30;1.00;;;;;;5033077;28;20177;-67
2021/08/14 09:11:15;;;;;;;0.70;0.40;;;23.80;1.00;;;;;;5033856;28;20264;-67
2021/08/14 09:14:04;;;;;;;0.50;0.30;;;24.20;1.00;;;;;;5034081;28;20238;-67
2021/08/14 09:16:30;;;;;;;0.50;0.20;;;24.70;99.90;;;;;;5034098;28;20435;-67
2021/08/14 09:18:58;;;;;;;0.50;0.20;;;24.50;99.90;;;;;;5033062;28;20435;-68
2021/08/14 09:21:32;;;;;;;2.97;0.67;;;24.70;99.90;;;;;;5033730;28;20213;-67
2021/08/14 09:23:57;;;;;;;0.80;0.53;;;24.80;99.90;;;;;;5033963;28;20478;-68
2021/08/14 09:26:23;;;;;;;0.90;0.73;;;24.90;99.90;;;;;;5034142;28;20800;-66
2021/08/14 09:29:04;;;;;;;1.17;0.67;;;24.80;99.90;;;;;;5033731;28;20178;-66
2021/08/14 09:31:50;;;;;;;1.23;0.70;;;24.80;99.90;;;;;;5033972;28;20170;-66
2021/08/14 09:34:23;;;;;;;2.30;0.40;;;24.70;99.90;;;;;;5034454;28;20454;-66
2021/08/14 09:37:10;;;;;;;1.10;0.70;;;25.00;99.90;;;;;;5032667;28;20455;-67
2021/08/14 09:39:50;;;;;;;0.60;0.20;;;25.40;99.90;;;;;;5032413;28;20543;-67
2021/08/14 09:42:16;;;;;;;0.50;0.20;;;25.00;99.90;;;;;;5033270;28;20939;-66
2021/08/14 09:44:41;;;;;;;0.90;0.30;;;24.90;99.90;;;;;;5032704;28;20427;-66
2021/08/14 09:47:11;;;;;;;0.50;0.23;;;24.80;99.90;;;;;;5033267;28;20185;-66
2021/08/14 09:49:54;;;;;;;1.07;0.97;;;24.40;99.90;;;;;;5033464;28;20205;-67
2021/08/14 09:52:25;;;;;;;0.50;0.20;;;24.90;99.90;;;;;;5033715;28;20516;-66
2021/08/14 09:54:52;;;;;;;0.50;0.20;;;25.20;99.90;;;;;;5036654;28;20531;-66
2021/08/14 09:57:19;;;;;;;0.80;0.53;;;25.50;84.20;;;;;;5036321;28;20531;-73
2021/08/14 09:59:46;;;;;;;0.67;0.50;;;25.30;73.10;;;;;;5037980;28;20495;-66
2021/08/14 10:02:27;;;;;;;0.70;0.50;;;25.00;99.90;;;;;;5037329;28;20457;-66
2021/08/14 10:04:55;;;;;;;1.20;1.10;;;24.90;99.90;;;;;;5037023;28;20478;-66
2021/08/14 10:07:21;;;;;;;3.53;2.13;;;25.80;55.80;;;;;;5038315;28;20435;-66
2021/08/14 10:09:48;;;;;;;1.03;0.20;;;26.30;1.00;;;;;;5038202;28;20498;-66
2021/08/14 10:12:16;;;;;;;2.60;2.20;;;26.60;1.00;;;;;;5039433;28;20475;-66
2021/08/14 10:14:44;;;;;;;0.77;0.77;;;26.30;1.00;;;;;;5040641;28;20451;-66
2021/08/14 10:17:10;;;;;;;0.50;0.20;;;25.80;1.00;;;;;;5040344;28;20914;-67
2021/08/14 10:19:37;;;;;;;0.50;0.27;;;25.70;1.00;;;;;;5039946;28;20471;-66
2021/08/14 10:22:04;;;;;;;3.17;0.83;;;25.50;1.00;;;;;;5041092;28;20428;-66
2021/08/14 10:24:45;;;;;;;0.60;0.37;;;25.60;1.00;;;;;;5041474;28;20518;-67
2021/08/14 10:27:19;;;;;;;0.70;0.47;;;25.40;1.00;;;;;;5040513;28;20434;-66
2021/08/14 10:29:47;;;;;;;0.80;0.47;;;25.60;1.00;;;;;;5040409;28;20435;-67
2021/08/14 10:32:39;;;;;;;0.80;0.50;;;25.80;1.00;;;;;;5039502;28;20428;-66
2021/08/14 10:35:14;;;;;;;0.60;0.30;;;26.00;1.00;;;;;;5038196;28;20436;-67
2021/08/14 10:37:42;;;;;;;0.83;0.83;;;26.40;1.00;;;;;;5035783;28;20515;-66
2021/08/14 10:40:09;;;;;;;0.50;0.20;;;26.20;1.00;;;;;;5038733;28;20517;-66
2021/08/14 10:42:53;;;;;;;0.50;0.30;;;25.90;1.00;;;;;;5036415;28;20432;-66
2021/08/14 10:45:30;;;;;;;0.90;0.53;;;26.30;1.00;;;;;;5036172;28;20439;-67
2021/08/14 10:47:56;;;;;;;0.50;0.20;;;26.40;1.00;;;;;;5036870;28;20481;-67
2021/08/14 10:50:33;;;;;;;1.67;1.37;;;26.40;1.00;;;;;;5030035;28;20431;-68
2021/08/14 10:53:11;;;;;;;0.50;0.30;;;26.20;1.00;;;;;;5036373;28;20239;-69
2021/08/14 10:55:41;;;;;;;0.70;0.30;;;25.90;1.00;;;;;;5036354;28;20432;-69
2021/08/14 10:58:32;;;;;;;5.60;0.60;;;26.00;1.00;;;;;;5036349;28;20448;-69
2021/08/14 11:01:03;;;;;;;0.50;0.17;;;25.80;1.00;;;;;;5035449;28;20479;-69
2021/08/14 11:03:36;;;;;;;0.83;0.83;;;25.80;1.00;;;;;;5036277;28;20487;-69
2021/08/14 11:06:25;;;;;;;0.50;0.20;;;26.00;1.00;;;;;;5035736;28;20428;-69
2021/08/14 11:09:17;;;;;;;1.00;0.80;;;25.90;1.00;;;;;;5036169;28;20448;-69
2021/08/14 11:12:02;;;;;;;1.23;1.13;;;26.20;1.00;;;;;;5036127;28;20428;-69
2021/08/14 11:14:44;;;;;;;0.53;0.30;;;26.40;1.00;;;;;;5034973;28;20424;-69
2021/08/14 11:17:16;;;;;;;0.60;0.20;;;26.70;1.00;;;;;;5036146;28;20534;-68
2021/08/14 11:19:49;;;;;;;0.50;0.10;;;26.50;1.00;;;;;;5036016;28;20954;-68
2021/08/14 11:22:36;;;;;;;1.37;1.27;;;26.70;1.00;;;;;;5036164;28;20477;-67
2021/08/14 11:25:20;;;;;;;1.57;0.87;;;26.00;1.00;;;;;;5034033;28;20754;-66
2021/08/14 11:27:55;;;;;;;2.23;0.60;;;25.90;1.00;;;;;;5028513;28;20961;-66
2021/08/14 11:30:24;;;;;;;0.50;0.20;;;26.20;1.00;;;;;;5029514;28;20428;-72
2021/08/14 11:32:50;;;;;;;1.13;0.83;;;26.50;1.00;;;;;;5026693;28;20439;-67
2021/08/14 11:35:22;;;;;;;0.60;0.30;;;27.00;1.00;;;;;;5032211;28;20443;-67
2021/08/14 11:37:49;;;;;;;1.20;1.10;;;27.40;1.00;;;;;;5031628;28;20976;-67
2021/08/14 11:40:15;;;;;;;1.73;1.63;;;27.40;1.00;;;;;;5023029;28;20963;-66
2021/08/14 11:42:40;;;;;;;0.50;0.20;;;26.80;1.00;;;;;;5028429;28;20428;-68
2021/08/14 11:45:07;;;;;;;0.50;0.20;;;26.50;1.00;;;;;;5029449;28;20259;-70
2021/08/14 11:47:37;;;;;;;0.70;0.60;;;26.60;1.00;;;;;;5026839;28;20201;-67
2021/08/14 11:50:06;;;;;;;1.43;1.33;;;26.50;1.00;;;;;;5022899;28;20531;-66
2021/08/14 11:52:32;;;;;;;0.50;0.20;;;26.20;1.00;;;;;;5025623;28;20520;-66
2021/08/14 11:55:05;;;;;;;1.80;0.30;;;25.50;1.00;;;;;;5031484;28;20515;-66
2021/08/14 11:57:36;;;;;;;2.20;1.57;;;25.60;1.00;;;;;;5029962;28;20236;-66
2021/08/14 12:00:25;;;;;;;0.90;0.60;;;25.60;1.00;;;;;;5029760;28;20475;-65
2021/08/14 12:03:12;;;;;;;3.60;0.83;;;25.90;1.00;;;;;;5026769;28;20438;-67
2021/08/14 12:05:46;;;;;;;2.70;0.70;;;25.90;1.00;;;;;;5020870;28;20435;-68
2021/08/14 12:08:31;;;;;;;0.60;0.30;;;25.50;1.00;;;;;;5020825;28;20432;-69
2021/08/14 12:11:01;;;;;;;2.23;1.00;;;25.00;1.00;;;;;;5015826;28;20424;-69
2021/08/14 12:13:27;;;;;;;0.53;0.33;;;25.20;1.00;;;;;;5015817;28;20503;-69
2021/08/14 12:16:07;;;;;;;0.80;0.63;;;25.30;1.00;;;;;;5023230;28;20464;-67
2021/08/14 12:18:34;;;;;;;1.93;1.40;;;25.60;1.00;;;;;;5034511;28;20184;-67
2021/08/14 12:21:01;;;;;;;1.63;1.53;;;25.60;1.00;;;;;;5033934;28;20476;-67
2021/08/14 12:23:29;;;;;;;0.77;0.50;;;25.70;1.00;;;;;;5026934;28;20758;-70
2021/08/14 12:25:58;;;;;;;1.53;0.50;;;25.50;1.00;;;;;;5025345;28;20432;-70
2021/08/14 12:28:34;;;;;;;0.50;0.30;;;25.40;1.00;;;;;;5020906;28;20460;-69
2021/08/14 12:31:13;;;;;;;0.97;0.50;;;25.90;1.00;;;;;;5014924;28;20452;-68
2021/08/14 12:33:48;;;;;;;0.50;0.20;;;26.00;1.00;;;;;;5023236;28;20527;-68
2021/08/14 12:36:13;;;;;;;0.50;0.20;;;26.30;1.00;;;;;;5034578;28;20426;-68
2021/08/14 12:38:48;;;;;;;0.50;0.20;;;26.30;1.00;;;;;;5034438;28;20432;-67
2021/08/14 12:41:16;;;;;;;6.47;0.73;;;26.60;1.00;;;;;;5034391;28;20219;-67
2021/08/14 12:43:43;;;;;;;0.60;0.30;;;26.00;1.00;;;;;;5024909;28;20440;-66
2021/08/14 12:46:24;;;;;;;1.03;0.60;;;25.80;1.00;;;;;;5014532;28;20459;-67
2021/08/14 12:49:24;;;;;;;0.70;0.60;;;25.60;1.00;;;;;;5014188;28;20425;-65
2021/08/14 12:51:54;;;;;;;0.50;0.20;;;25.80;1.00;;;;;;5028396;28;20818;-69
2021/08/14 12:54:20;;;;;;;0.53;0.30;;;26.10;1.00;;;;;;5034120;28;20869;-69